createdAt,value
2023-05-24T00:00:53.478Z,101498.25
2023-05-24T00:03:22.161Z,101500.66
2023-05-24T00:05:52.502Z,101512.03
2023-05-24T00:08:22.989Z,101509.41
2023-05-24T00:10:51.221Z,101510.72
2023-05-24T00:13:23.070Z,101511.72
2023-05-24T00:15:51.424Z,101514.25
2023-05-24T00:18:22.590Z,101510.06
2023-05-24T00:20:51.978Z,101503.09
2023-05-24T00:23:21.131Z,101509.47
2023-05-24T00:25:49.378Z,101513.06
2023-05-24T00:28:17.583Z,101512.00
2023-05-24T00:30:47.948Z,101517.13
2023-05-24T00:33:16.122Z,101510.13
2023-05-24T00:35:44.360Z,101513.84
2023-05-24T00:38:12.815Z,101515.72
2023-05-24T00:40:41.648Z,101521.03
2023-05-24T00:43:09.971Z,101521.06
2023-05-24T00:45:38.521Z,101519.38
2023-05-24T00:48:08.937Z,101522.16
2023-05-24T00:50:38.280Z,101532.78
2023-05-24T00:53:08.067Z,101535.41
2023-05-24T00:55:36.794Z,101530.31
2023-05-24T00:58:08.618Z,101555.91
2023-05-24T01:00:37.909Z,101546.19
2023-05-24T01:03:08.787Z,101542.47
2023-05-24T01:05:37.139Z,101543.31
2023-05-24T01:08:16.429Z,101542.47
2023-05-24T01:10:53.498Z,101547.78
2023-05-24T01:13:28.704Z,101540.59
2023-05-24T01:16:03.282Z,101553.16
2023-05-24T01:18:35.127Z,101548.06
2023-05-24T01:21:17.872Z,101546.22
2023-05-24T01:23:54.161Z,101553.41
2023-05-24T01:26:38.718Z,101545.72
2023-05-24T01:29:09.683Z,101560.81
2023-05-24T01:31:38.432Z,101548.31
2023-05-24T01:34:07.200Z,101559.84
2023-05-24T01:36:38.050Z,101548.50
2023-05-24T01:39:06.652Z,101553.72
2023-05-24T01:41:40.894Z,101544.84
2023-05-24T01:44:20.116Z,101544.63
2023-05-24T01:46:55.537Z,101532.44
2023-05-24T01:49:28.336Z,101531.53
2023-05-24T01:52:02.942Z,101535.75
2023-05-24T01:54:34.924Z,101534.09
2023-05-24T01:57:08.897Z,101540.19
2023-05-24T01:59:43.390Z,101538.47
2023-05-24T02:02:11.895Z,101551.97
2023-05-24T02:04:40.183Z,101543.09
2023-05-24T02:07:08.382Z,101536.16
2023-05-24T02:09:38.886Z,101546.16
2023-05-24T02:12:08.468Z,101538.13
2023-05-24T02:14:38.455Z,101538.28
2023-05-24T02:17:10.896Z,101538.19
2023-05-24T02:19:39.103Z,101536.19
2023-05-24T02:22:07.849Z,101541.88
2023-05-24T02:24:36.743Z,101536.66
2023-05-24T02:27:05.153Z,101547.44
2023-05-24T02:29:33.434Z,101548.97
2023-05-24T02:32:02.165Z,101547.44
2023-05-24T02:34:34.425Z,101554.56
2023-05-24T02:37:02.794Z,101542.13
2023-05-24T02:39:31.332Z,101537.38
2023-05-24T02:42:00.113Z,101532.66
2023-05-24T02:44:28.549Z,101543.34
2023-05-24T02:46:56.646Z,101539.25
2023-05-24T02:49:24.837Z,101542.88
2023-05-24T02:51:54.492Z,101541.31
2023-05-24T02:54:22.617Z,101545.59
2023-05-24T02:56:51.192Z,101554.44
2023-05-24T02:59:19.590Z,101549.94
2023-05-24T03:01:47.813Z,101561.19
2023-05-24T03:04:16.258Z,101562.91
2023-05-24T03:06:44.639Z,101558.78
2023-05-24T03:09:17.842Z,101559.59
2023-05-24T03:11:46.175Z,101555.25
2023-05-24T03:14:15.011Z,101559.56
2023-05-24T03:16:44.895Z,101557.75
2023-05-24T03:19:13.774Z,101559.25
2023-05-24T03:21:42.284Z,101563.66
2023-05-24T03:24:13.424Z,101561.28
2023-05-24T03:26:43.099Z,101571.19
2023-05-24T03:29:11.665Z,101569.16
2023-05-24T03:31:39.938Z,101567.47
2023-05-24T03:34:08.141Z,101566.75
2023-05-24T03:36:36.748Z,101566.72
2023-05-24T03:39:05.419Z,101565.97
2023-05-24T03:41:33.726Z,101566.00
2023-05-24T03:44:03.752Z,101569.47
2023-05-24T03:46:35.164Z,101570.31
2023-05-24T03:49:06.208Z,101568.47
2023-05-24T03:51:34.575Z,101579.00
2023-05-24T03:54:05.225Z,101573.88
2023-05-24T03:56:33.436Z,101574.72
2023-05-24T03:59:04.528Z,101578.19
2023-05-24T04:01:34.576Z,101575.66
2023-05-24T04:04:05.467Z,101577.28
2023-05-24T04:06:36.418Z,101579.84
2023-05-24T04:09:06.183Z,101571.88
2023-05-24T04:11:34.451Z,101570.00
2023-05-24T04:14:04.805Z,101587.06
2023-05-24T04:16:34.608Z,101584.50
2023-05-24T04:19:04.682Z,101581.91
2023-05-24T04:21:33.457Z,101588.13
2023-05-24T04:24:03.680Z,101586.22
2023-05-24T04:26:34.012Z,101588.84
2023-05-24T04:29:07.922Z,101598.53
2023-05-24T04:31:36.756Z,101598.66
2023-05-24T04:34:07.505Z,101596.91
2023-05-24T04:36:35.854Z,101584.66
2023-05-24T04:39:05.266Z,101606.66
2023-05-24T04:41:35.607Z,101603.94
2023-05-24T04:44:03.821Z,101609.25
2023-05-24T04:46:36.392Z,101606.59
2023-05-24T04:49:06.059Z,101613.66
2023-05-24T04:51:38.557Z,101619.88
2023-05-24T04:54:09.323Z,101614.59
2023-05-24T04:56:38.722Z,101625.94
2023-05-24T04:59:07.223Z,101620.63
2023-05-24T05:01:37.466Z,101631.91
2023-05-24T05:04:05.932Z,101620.91
2023-05-24T05:06:38.888Z,101620.88
2023-05-24T05:09:09.561Z,101603.50
2023-05-24T05:11:38.049Z,101624.56
2023-05-24T05:14:06.424Z,101626.34
2023-05-24T05:16:36.108Z,101623.72
2023-05-24T05:19:05.970Z,101629.91
2023-05-24T05:21:35.301Z,101626.53
2023-05-24T05:24:04.848Z,101633.59
2023-05-24T05:26:33.153Z,101637.06
2023-05-24T05:29:04.574Z,101642.22
2023-05-24T05:31:32.745Z,101629.00
2023-05-24T05:34:02.500Z,101642.94
2023-05-24T05:36:31.390Z,101633.34
2023-05-24T05:39:01.986Z,101642.97
2023-05-24T05:41:31.494Z,101649.13
2023-05-24T05:43:59.947Z,101649.28
2023-05-24T05:46:28.145Z,101649.25
2023-05-24T05:48:56.360Z,101654.56
2023-05-24T05:51:25.879Z,101659.78
2023-05-24T05:53:54.316Z,101662.34
2023-05-24T05:56:24.102Z,101660.53
2023-05-24T05:58:52.206Z,101658.72
2023-05-24T06:01:20.733Z,101663.06
2023-05-24T06:03:49.200Z,101661.13
2023-05-24T06:06:17.625Z,101662.75
2023-05-24T06:08:47.306Z,101666.22
2023-05-24T06:11:15.559Z,101666.00
2023-05-24T06:13:46.862Z,101662.41
2023-05-24T06:16:15.123Z,101670.28
2023-05-24T06:18:53.402Z,101662.84
2023-05-24T06:21:33.068Z,101662.66
2023-05-24T06:24:02.844Z,101648.63
2023-05-24T06:26:31.212Z,101659.88
2023-05-24T06:28:59.604Z,101661.56
2023-05-24T06:31:27.763Z,101676.00
2023-05-24T06:34:03.284Z,101676.97
2023-05-24T06:36:34.343Z,101687.97
2023-05-24T06:39:06.401Z,101687.94
2023-05-24T06:41:34.602Z,101689.50
2023-05-24T06:44:05.137Z,101698.31
2023-05-24T06:46:33.537Z,101679.47
2023-05-24T06:49:04.871Z,101687.44
2023-05-24T06:51:34.965Z,101684.75
2023-05-24T06:54:05.058Z,101684.66
2023-05-24T06:56:33.383Z,101685.16
2023-05-24T06:59:04.637Z,101684.88
2023-05-24T07:01:33.253Z,101690.31
2023-05-24T07:04:01.842Z,101695.34
2023-05-24T07:06:30.691Z,101698.56
2023-05-24T07:08:58.811Z,101696.56
2023-05-24T07:11:28.737Z,101693.72
2023-05-24T07:13:57.263Z,101698.34
2023-05-24T07:16:25.627Z,101703.28
2023-05-24T07:18:54.023Z,101690.06
2023-05-24T07:21:22.686Z,101702.84
2023-05-24T07:23:52.242Z,101711.63
2023-05-24T07:26:20.886Z,101707.88
2023-05-24T07:28:50.606Z,101708.66
2023-05-24T07:31:19.073Z,101713.16
2023-05-24T07:33:49.266Z,101716.66
2023-05-24T07:36:17.835Z,101722.50
2023-05-24T07:38:47.618Z,101713.59
2023-05-24T07:41:16.037Z,101721.44
2023-05-24T07:43:44.320Z,101714.91
2023-05-24T07:46:13.954Z,101716.31
2023-05-24T07:48:42.188Z,101713.44
2023-05-24T07:51:10.561Z,101720.31
2023-05-24T07:53:39.110Z,101718.53
2023-05-24T07:56:08.530Z,101715.97
2023-05-24T07:58:36.843Z,101717.78
2023-05-24T08:01:05.886Z,101713.50
2023-05-24T08:03:37.065Z,101711.91
2023-05-24T08:06:05.501Z,101707.13
2023-05-24T08:08:33.781Z,101719.41
2023-05-24T08:11:04.545Z,101724.28
2023-05-24T08:13:32.948Z,101718.59
2023-05-24T08:16:01.968Z,101717.50
2023-05-24T08:18:32.446Z,101707.59
2023-05-24T08:21:04.126Z,101711.91
2023-05-24T08:23:33.922Z,101709.84
2023-05-24T08:26:06.090Z,101705.53
2023-05-24T08:28:34.432Z,101703.78
2023-05-24T08:31:03.356Z,101713.72
2023-05-24T08:33:33.883Z,101716.31
2023-05-24T08:36:07.270Z,101711.50
2023-05-24T08:38:35.714Z,101713.22
2023-05-24T08:41:08.683Z,101715.63
2023-05-24T08:43:37.730Z,101713.34
2023-05-24T08:46:07.089Z,101722.63
2023-05-24T08:48:41.075Z,101715.25
2023-05-24T08:51:11.010Z,101729.88
2023-05-24T08:53:42.371Z,101721.44
2023-05-24T08:56:11.372Z,101725.81
2023-05-24T08:58:40.157Z,101728.13
2023-05-24T09:01:09.275Z,101733.56
2023-05-24T09:03:38.819Z,101733.88
2023-05-24T09:06:08.777Z,101739.97
2023-05-24T09:08:41.199Z,101741.13
2023-05-24T09:11:12.142Z,101748.00
2023-05-24T09:13:41.218Z,101746.91
2023-05-24T09:16:09.673Z,101752.09
2023-05-24T09:18:37.978Z,101758.00
2023-05-24T09:21:06.465Z,101756.44
2023-05-24T09:23:35.798Z,101759.38
2023-05-24T09:26:10.875Z,101748.88
2023-05-24T09:28:41.789Z,101756.69
2023-05-24T09:31:10.036Z,101756.03
2023-05-24T09:33:40.168Z,101753.53
2023-05-24T09:36:09.134Z,101754.84
2023-05-24T09:38:37.405Z,101751.88
2023-05-24T09:41:08.625Z,101751.78
2023-05-24T09:43:49.641Z,101753.88
2023-05-24T09:46:19.162Z,101747.72
2023-05-24T09:48:58.759Z,101752.09
2023-05-24T09:51:28.019Z,101742.34
2023-05-24T09:54:00.325Z,101752.22
2023-05-24T09:56:28.932Z,101753.22
2023-05-24T09:59:01.824Z,101755.75
2023-05-24T10:01:32.091Z,101753.94
2023-05-24T10:04:03.712Z,101764.16
2023-05-24T10:06:37.711Z,101768.56
2023-05-24T10:09:08.006Z,101776.47
2023-05-24T10:11:37.688Z,101775.38
2023-05-24T10:14:10.890Z,101773.31
2023-05-24T10:16:39.602Z,101767.81
2023-05-24T10:19:08.447Z,101776.78
2023-05-24T10:21:40.754Z,101779.41
2023-05-24T10:24:12.474Z,101766.91
2023-05-24T10:26:42.707Z,101770.84
2023-05-24T10:29:22.243Z,101769.81
2023-05-24T10:31:52.350Z,101770.53
2023-05-24T10:34:22.329Z,101782.72
2023-05-24T10:36:51.544Z,101771.97
2023-05-24T10:39:22.835Z,101774.16
2023-05-24T10:41:51.077Z,101777.91
2023-05-24T10:44:21.334Z,101765.97
2023-05-24T10:47:22.379Z,101780.50
2023-05-24T10:49:56.808Z,101782.91
2023-05-24T10:52:35.428Z,101787.50
2023-05-24T10:55:08.465Z,101782.56
2023-05-24T10:57:37.074Z,101777.56
2023-05-24T11:00:35.688Z,101777.56
2023-05-24T11:03:10.800Z,101766.34
2023-05-24T11:05:53.092Z,101778.94
2023-05-24T11:08:35.749Z,101785.91
2023-05-24T11:11:22.973Z,101790.13
2023-05-24T11:13:58.182Z,101784.50
2023-05-24T11:16:38.842Z,101791.34
2023-05-24T11:19:17.941Z,101777.09
2023-05-24T11:21:47.765Z,101775.81
2023-05-24T11:24:17.533Z,101776.34
2023-05-24T11:26:46.194Z,101776.53
2023-05-24T11:29:17.670Z,101765.31
2023-05-24T11:31:49.736Z,101767.59
2023-05-24T11:34:19.574Z,101760.63
2023-05-24T11:36:48.534Z,101762.53
2023-05-24T11:39:18.162Z,101756.03
2023-05-24T11:41:46.723Z,101753.25
2023-05-24T11:44:19.029Z,101752.53
2023-05-24T11:46:48.054Z,101758.44
2023-05-24T11:49:17.717Z,101750.03
2023-05-24T11:51:47.699Z,101754.88
2023-05-24T11:54:16.464Z,101760.34
2023-05-24T11:56:45.117Z,101758.41
2023-05-24T11:59:17.685Z,101766.81
2023-05-24T12:01:46.150Z,101774.44
2023-05-24T12:04:14.915Z,101775.94
2023-05-24T12:06:44.543Z,101780.81
2023-05-24T12:09:15.196Z,101782.53
2023-05-24T12:11:44.851Z,101778.94
2023-05-24T12:14:14.888Z,101781.69
2023-05-24T12:16:44.466Z,101782.31
2023-05-24T12:19:31.774Z,101779.91
2023-05-24T12:22:02.100Z,101780.59
2023-05-24T12:24:33.092Z,101778.09
2023-05-24T12:27:07.818Z,101781.63
2023-05-24T12:29:37.965Z,101764.44
2023-05-24T12:32:12.118Z,101765.53
2023-05-24T12:34:42.671Z,101762.72
2023-05-24T12:37:12.509Z,101775.81
2023-05-24T12:39:44.181Z,101773.75
2023-05-24T12:42:13.991Z,101783.25
2023-05-24T12:44:43.142Z,101779.41
2023-05-24T12:47:11.912Z,101774.31
2023-05-24T12:49:40.548Z,101770.19
2023-05-24T12:52:08.706Z,101780.69
2023-05-24T12:54:36.885Z,101775.22
2023-05-24T12:57:09.701Z,101777.31
2023-05-24T12:59:39.610Z,101773.88
2023-05-24T13:02:08.434Z,101780.31
2023-05-24T13:04:36.963Z,101775.94
2023-05-24T13:07:05.249Z,101783.66
2023-05-24T13:09:34.436Z,101787.81
2023-05-24T13:12:03.241Z,101783.06
2023-05-24T13:14:32.926Z,101778.28
2023-05-24T13:17:01.272Z,101779.69
2023-05-24T13:19:38.523Z,101775.03
2023-05-24T13:22:09.980Z,101776.25
2023-05-24T13:24:38.699Z,101776.16
2023-05-24T13:27:09.083Z,101786.66
2023-05-24T13:29:48.691Z,101778.28
2023-05-24T13:32:21.263Z,101778.56
2023-05-24T13:34:49.561Z,101776.63
2023-05-24T13:37:18.152Z,101790.00
2023-05-24T13:39:47.042Z,101781.19
2023-05-24T13:42:16.369Z,101782.34
2023-05-24T13:44:46.109Z,101778.63
2023-05-24T13:47:27.307Z,101774.44
2023-05-24T13:50:04.890Z,101777.81
2023-05-24T13:52:33.430Z,101774.94
2023-05-24T13:55:05.813Z,101773.63
2023-05-24T14:00:10.872Z,101772.84
2023-05-24T14:02:40.963Z,101769.94
2023-05-24T14:05:25.782Z,101773.97
2023-05-24T14:07:55.031Z,101770.19
2023-05-24T14:10:23.787Z,101768.81
2023-05-24T14:13:07.886Z,101772.53
2023-05-24T14:15:46.651Z,101777.56
2023-05-24T14:18:15.879Z,101781.94
2023-05-24T14:20:44.713Z,101760.50
2023-05-24T14:23:13.393Z,101799.00
2023-05-24T14:25:42.595Z,101780.56
2023-05-24T14:28:11.872Z,101790.25
2023-05-24T14:30:42.706Z,101787.69
2023-05-24T14:33:11.762Z,101789.91
2023-05-24T14:35:40.651Z,101789.72
2023-05-24T14:38:10.972Z,101787.56
2023-05-24T14:40:41.095Z,101787.09
2023-05-24T14:43:11.126Z,101777.53
2023-05-24T14:45:41.768Z,101787.06
2023-05-24T14:48:12.964Z,101787.75
2023-05-24T14:50:42.688Z,101786.13
2023-05-24T14:53:13.064Z,101787.81
2023-05-24T14:55:43.990Z,101785.47
2023-05-24T14:58:13.807Z,101772.66
2023-05-24T15:00:43.521Z,101785.16
2023-05-24T15:03:15.149Z,101770.09
2023-05-24T15:05:43.852Z,101787.72
2023-05-24T15:08:15.094Z,101778.84
2023-05-24T15:10:46.477Z,101780.41
2023-05-24T15:13:15.132Z,101787.00
2023-05-24T15:15:43.896Z,101777.19
2023-05-24T15:18:16.434Z,101786.84
2023-05-24T15:20:45.020Z,101777.00
2023-05-24T15:23:13.504Z,101768.72
2023-05-24T15:25:43.086Z,101772.09
2023-05-24T15:28:12.969Z,101779.84
2023-05-24T15:30:44.452Z,101779.06
2023-05-24T15:33:17.105Z,101763.53
2023-05-24T15:35:46.902Z,101776.78
2023-05-24T15:38:17.684Z,101775.91
2023-05-24T15:40:46.693Z,101772.09
2023-05-24T15:43:15.856Z,101771.53
2023-05-24T15:45:44.369Z,101755.28
2023-05-24T15:48:14.789Z,101766.94
2023-05-24T15:53:14.485Z,101758.34
2023-05-24T15:55:42.668Z,101762.69
2023-05-24T15:58:13.586Z,101766.94
2023-05-24T16:00:42.052Z,101770.31
2023-05-24T16:03:10.651Z,101761.47
2023-05-24T16:05:40.474Z,101755.91
2023-05-24T16:08:08.669Z,101748.56
2023-05-24T16:10:37.269Z,101715.78
2023-05-24T16:13:05.581Z,101757.94
2023-05-24T16:15:35.965Z,101757.53
2023-05-24T16:18:05.018Z,101741.56
2023-05-24T16:20:33.357Z,101752.00
2023-05-24T16:23:03.756Z,101761.94
2023-05-24T16:25:32.660Z,101762.66
2023-05-24T16:28:01.071Z,101758.44
2023-05-24T16:30:29.981Z,101760.72
2023-05-24T16:32:58.366Z,101761.66
2023-05-24T16:35:26.634Z,101767.03
2023-05-24T16:37:56.690Z,101761.97
2023-05-24T16:40:26.926Z,101764.84
2023-05-24T16:42:55.407Z,101761.25
2023-05-24T16:45:23.807Z,101762.34
2023-05-24T16:47:52.491Z,101765.34
2023-05-24T16:50:20.864Z,101770.47
2023-05-24T16:52:49.778Z,101766.63
2023-05-24T16:55:18.074Z,101759.19
2023-05-24T16:57:47.969Z,101765.97
2023-05-24T17:00:17.015Z,101769.56
2023-05-24T17:02:45.353Z,101772.03
2023-05-24T17:05:13.659Z,101780.56
2023-05-24T17:07:42.943Z,101773.75
2023-05-24T17:10:14.310Z,101776.75
2023-05-24T17:12:43.331Z,101773.94
2023-05-24T17:15:14.142Z,101771.56
2023-05-24T17:17:42.797Z,101764.34
2023-05-24T17:20:12.246Z,101771.56
2023-05-24T17:22:40.425Z,101761.03
2023-05-24T17:25:09.953Z,101762.81
2023-05-24T17:27:38.375Z,101759.19
2023-05-24T17:30:07.728Z,101745.34
2023-05-24T17:32:37.333Z,101750.09
2023-05-24T17:35:06.210Z,101748.63
2023-05-24T17:37:36.191Z,101752.94
2023-05-24T17:40:05.047Z,101750.19
2023-05-24T17:42:33.687Z,101757.47
2023-05-24T17:45:04.924Z,101760.09
2023-05-24T17:47:33.076Z,101754.75
2023-05-24T17:50:05.569Z,101754.50
2023-05-24T17:52:34.374Z,101753.81
2023-05-24T17:55:03.691Z,101756.31
2023-05-24T17:57:32.533Z,101756.50
2023-05-24T18:00:01.115Z,101755.28
2023-05-24T18:02:29.644Z,101748.97
2023-05-24T18:04:57.963Z,101744.81
2023-05-24T18:07:28.529Z,101733.00
2023-05-24T18:10:00.842Z,101735.50
2023-05-24T18:12:29.910Z,101742.44
2023-05-24T18:14:58.251Z,101744.16
2023-05-24T18:17:27.604Z,101736.84
2023-05-24T18:19:56.322Z,101750.56
2023-05-24T18:22:25.015Z,101743.00
2023-05-24T18:24:55.814Z,101740.34
2023-05-24T18:27:24.171Z,101743.28
2023-05-24T18:29:52.436Z,101744.69
2023-05-24T18:32:20.842Z,101733.94
2023-05-24T18:34:49.486Z,101738.06
2023-05-24T18:37:19.856Z,101733.78
2023-05-24T18:39:48.260Z,101740.63
2023-05-24T18:42:20.530Z,101739.78
2023-05-24T18:44:48.674Z,101746.44
2023-05-24T18:47:17.381Z,101742.41
2023-05-24T18:49:48.322Z,101742.78
2023-05-24T18:52:18.060Z,101748.06
2023-05-24T18:54:46.896Z,101748.63
2023-05-24T18:57:16.497Z,101750.09
2023-05-24T18:59:46.956Z,101746.78
2023-05-24T19:02:15.471Z,101752.34
2023-05-24T19:04:48.183Z,101749.94
2023-05-24T19:07:16.704Z,101759.75
2023-05-24T19:09:45.424Z,101751.75
2023-05-24T19:12:15.330Z,101755.97
2023-05-24T19:14:44.096Z,101750.34
2023-05-24T19:17:13.882Z,101766.13
2023-05-24T19:19:42.707Z,101768.16
2023-05-24T19:22:11.504Z,101761.44
2023-05-24T19:24:39.867Z,101772.16
2023-05-24T19:27:08.346Z,101772.59
2023-05-24T19:29:37.152Z,101769.47
2023-05-24T19:32:06.510Z,101774.97
2023-05-24T19:34:37.559Z,101757.44
2023-05-24T19:37:09.952Z,101752.97
2023-05-24T19:39:41.838Z,101754.00
2023-05-24T19:42:12.558Z,101766.69
2023-05-24T19:45:01.410Z,101773.03
2023-05-24T19:47:39.108Z,101767.13
2023-05-24T19:50:11.718Z,101768.41
2023-05-24T19:52:40.169Z,101770.66
2023-05-24T19:55:09.633Z,101771.09
2023-05-24T19:57:38.357Z,101757.63
2023-05-24T20:00:12.520Z,101756.75
2023-05-24T20:02:41.050Z,101740.91
2023-05-24T20:05:11.376Z,101747.84
2023-05-24T20:07:39.599Z,101745.78
2023-05-24T20:10:12.188Z,101756.31
2023-05-24T20:12:41.297Z,101755.78
2023-05-24T20:15:11.455Z,101755.41
2023-05-24T20:17:40.131Z,101753.25
2023-05-24T20:20:11.558Z,101752.53
2023-05-24T20:22:40.164Z,101745.50
2023-05-24T20:25:09.377Z,101741.25
2023-05-24T20:27:37.897Z,101729.88
2023-05-24T20:30:08.398Z,101730.94
2023-05-24T20:32:36.652Z,101745.81
2023-05-24T20:35:05.190Z,101755.66
2023-05-24T20:37:35.198Z,101733.59
2023-05-24T20:40:03.669Z,101755.72
2023-05-24T20:42:32.423Z,101765.44
2023-05-24T20:45:03.904Z,101765.66
2023-05-24T20:47:32.569Z,101765.66
2023-05-24T20:50:01.120Z,101766.84
2023-05-24T20:52:29.967Z,101756.31
2023-05-24T20:55:00.177Z,101764.28
2023-05-24T20:57:28.954Z,101768.66
2023-05-24T20:59:57.418Z,101756.00
2023-05-24T21:02:28.607Z,101759.84
2023-05-24T21:04:57.082Z,101751.06
2023-05-24T21:07:25.616Z,101756.66
2023-05-24T21:09:54.935Z,101753.84
2023-05-24T21:12:24.582Z,101749.56
2023-05-24T21:14:54.054Z,101759.41
2023-05-24T21:17:22.889Z,101757.44
2023-05-24T21:19:51.489Z,101769.78
2023-05-24T21:22:20.433Z,101755.81
2023-05-24T21:24:48.818Z,101773.78
2023-05-24T21:27:16.975Z,101768.53
2023-05-24T21:29:48.640Z,101762.94
2023-05-24T21:32:16.968Z,101764.75
2023-05-24T21:34:45.233Z,101777.19
2023-05-24T21:37:13.905Z,101786.91
2023-05-24T21:39:44.137Z,101777.03
2023-05-24T21:42:12.526Z,101781.53
2023-05-24T21:44:40.690Z,101779.69
2023-05-24T21:47:10.339Z,101773.78
2023-05-24T21:49:38.575Z,101779.88
2023-05-24T21:52:06.843Z,101787.03
2023-05-24T21:54:35.449Z,101777.78
2023-05-24T21:57:04.018Z,101770.91
2023-05-24T21:59:35.154Z,101783.75
2023-05-24T22:02:03.493Z,101772.75
2023-05-24T22:04:33.282Z,101748.97
2023-05-24T22:07:01.591Z,101779.94
2023-05-24T22:09:29.917Z,101776.19
2023-05-24T22:11:58.318Z,101783.28
2023-05-24T22:14:27.116Z,101773.88
2023-05-24T22:16:55.504Z,101764.09
2023-05-24T22:19:39.007Z,101758.50
2023-05-24T22:22:10.194Z,101771.22
2023-05-24T22:24:38.426Z,101763.22
2023-05-24T22:27:13.936Z,101757.84
2023-05-24T22:29:42.368Z,101756.03
2023-05-24T22:32:10.953Z,101755.88
2023-05-24T22:34:39.266Z,101769.56
2023-05-24T22:37:09.224Z,101769.00
2023-05-24T22:39:37.807Z,101779.69
2023-05-24T22:42:09.083Z,101787.22
2023-05-24T22:44:37.811Z,101791.16
2023-05-24T22:47:06.252Z,101800.56
2023-05-24T22:49:34.574Z,101795.81
2023-05-24T22:52:02.898Z,101794.63
2023-05-24T22:54:32.544Z,101806.00
2023-05-24T22:57:03.289Z,101808.47
2023-05-24T22:59:34.461Z,101798.75
2023-05-24T23:02:02.593Z,101800.69
2023-05-24T23:04:33.816Z,101793.66
2023-05-24T23:07:02.661Z,101788.56
2023-05-24T23:09:35.458Z,101783.00
2023-05-24T23:12:08.068Z,101794.63
2023-05-24T23:14:39.635Z,101794.38
2023-05-24T23:17:10.373Z,101782.88
2023-05-24T23:19:42.622Z,101780.34
2023-05-24T23:22:12.064Z,101777.72
2023-05-24T23:24:43.966Z,101784.66
2023-05-24T23:27:12.634Z,101765.72
2023-05-24T23:29:41.377Z,101771.28
2023-05-24T23:32:10.967Z,101770.22
2023-05-24T23:34:40.417Z,101768.38
2023-05-24T23:37:08.736Z,101752.47
2023-05-24T23:39:37.095Z,101761.34
2023-05-24T23:42:07.106Z,101752.56
2023-05-24T23:44:36.302Z,101749.81
2023-05-24T23:47:04.845Z,101748.22
2023-05-24T23:49:33.523Z,101741.06
2023-05-24T23:52:05.131Z,101740.34
2023-05-24T23:54:34.141Z,101732.38
2023-05-24T23:57:07.916Z,101720.00
2023-05-24T23:59:36.607Z,101722.78
